Time;durP1;ratioP1;P1;durP2;ratioP2;P2;SDS_P1;SDS_P2;PMS_P1;PMS_P2;Temp;Humidity;BMP_temperature;BMP_pressure;BME280_temperature;BME280_humidity;BME280_pressure;Samples;Min_cycle;Max_cycle;Signal;HPM_P1;HPM_P2
2021/11/19 00:00:50;;;;;;;;;;;;;;;;;;5074400;28;19912;-77
2021/11/19 00:03:16;;;;;;;;;;;;;;;;;;5074288;28;19961;-77
2021/11/19 00:05:43;;;;;;;;;;;;;;;;;;5074344;28;20303;-77
2021/11/19 00:08:08;;;;;;;;;;;;;;;;;;5074259;28;19912;-78
2021/11/19 00:10:34;;;;;;;;;;;;;;;;;;5074410;28;20448;-78
2021/11/19 00:13:00;;;;;;;;;;;;;;;;;;5074409;28;20011;-78
2021/11/19 00:15:25;;;;;;;;;;;;;;;;;;5059348;28;19934;-77
2021/11/19 00:17:51;;;;;;;;;;;;;;;;;;5034082;28;20003;-77
2021/11/19 00:20:18;;;;;;;;;;;;;;;;;;5034230;28;20276;-78
2021/11/19 00:22:43;;;;;;;;;;;;;;;;;;5033962;28;19913;-77
2021/11/19 00:25:09;;;;;;;;;;;;;;;;;;5036973;28;19909;-76
2021/11/19 00:27:35;;;;;;;;;;;;;;;;;;5054106;28;19913;-77
2021/11/19 00:30:01;;;;;;;;;;;;;;;;;;5052669;28;19959;-76
2021/11/19 00:32:27;;;;;;;;;;;;;;;;;;5053825;28;20298;-76
2021/11/19 00:34:52;;;;;;;;;;;;;;;;;;5052380;28;19912;-77
2021/11/19 00:37:19;;;;;;;;;;;;;;;;;;5021545;28;20359;-76
2021/11/19 00:39:45;;;;;;;;;;;;;;;;;;5032558;28;19913;-76
2021/11/19 00:42:10;;;;;;;;;;;;;;;;;;5032634;28;20385;-76
2021/11/19 00:44:36;;;;;;;;;;;;;;;;;;5033667;28;19944;-76
2021/11/19 00:47:02;;;;;;;;;;;;;;;;;;5016085;28;20282;-76
2021/11/19 00:49:31;;;;;;;;;;;;;;;;;;5032463;28;19916;-76
2021/11/19 00:51:57;;;;;;;;;;;;;;;;;;5033776;28;20390;-75
2021/11/19 00:54:23;;;;;;;;;;;;;;;;;;5032512;28;19920;-76
2021/11/19 00:56:53;;;;;;;;;;;;;;;;;;5032419;28;19917;-76
2021/11/19 00:59:20;;;;;;;;;;;;;;;;;;5033550;28;20310;-77
2021/11/19 01:01:48;;;;;;;;;;;;;;;;;;5032598;28;19913;-76
2021/11/19 01:04:14;;;;;;;;;;;;;;;;;;5033395;28;19913;-76
2021/11/19 01:06:40;;;;;;;;;;;;;;;;;;5047414;28;19913;-76
2021/11/19 01:09:07;;;;;;;;;;;;;;;;;;5058908;28;19935;-76
2021/11/19 01:11:33;;;;;;;;;;;;;;;;;;5060023;28;19916;-76
2021/11/19 01:13:59;;;;;;;;;;;;;;;;;;5058875;28;19952;-76
2021/11/19 01:16:27;;;;;;;;;;;;;;;;;;5058565;28;19923;-76
2021/11/19 01:18:55;;;;;;;;;;;;;;;;;;5057632;28;19916;-76
2021/11/19 01:21:24;;;;;;;;;;;;;;;;;;5058531;28;19912;-76
2021/11/19 01:23:50;;;;;;;;;;;;;;;;;;5058647;28;19913;-76
2021/11/19 01:26:20;;;;;;;;;;;;;;;;;;5058865;28;20256;-76
2021/11/19 01:28:46;;;;;;;;;;;;;;;;;;5058828;28;19995;-76
2021/11/19 01:31:15;;;;;;;;;;;;;;;;;;5059023;28;19920;-76
2021/11/19 01:33:41;;;;;;;;;;;;;;;;;;5058393;28;19924;-76
2021/11/19 01:36:24;;;;;;;;;;;;;;;;;;5057753;28;20477;-77
2021/11/19 01:39:06;;;;;;;;;;;;;;;;;;5058738;28;19916;-76
2021/11/19 01:41:47;;;;;;;;;;;;;;;;;;5058143;28;20274;-76
2021/11/19 01:44:19;;;;;;;;;;;;;;;;;;5058210;28;19924;-76
2021/11/19 01:46:46;;;;;;;;;;;;;;;;;;5059916;28;19920;-76
2021/11/19 01:49:11;;;;;;;;;;;;;;;;;;5058661;28;19917;-77
2021/11/19 01:51:45;;;;;;;;;;;;;;;;;;5058572;28;19920;-76
2021/11/19 01:54:37;;;;;;;;;;;;;;;;;;5058413;28;19912;-76
2021/11/19 01:57:06;;;;;;;;;;;;;;;;;;5035679;28;20410;-76
2021/11/19 01:59:36;;;;;;;;;;;;;;;;;;5058722;28;19921;-76
2021/11/19 02:02:12;;;;;;;;;;;;;;;;;;5058525;28;19924;-77
2021/11/19 02:04:39;;;;;;;;;;;;;;;;;;5058497;28;20370;-77
2021/11/19 02:07:07;;;;;;;;;;;;;;;;;;5057617;28;20275;-77
2021/11/19 02:10:19;;;;;;;;;;;;;;;;;;5058379;28;19918;-77
2021/11/19 02:13:07;;;;;;;;;;;;;;;;;;5057981;28;19912;-77
2021/11/19 02:15:36;;;;;;;;;;;;;;;;;;5057824;28;19913;-77
2021/11/19 02:18:15;;;;;;;;;;;;;;;;;;5054573;28;19923;-77
2021/11/19 02:20:47;;;;;;;;;;;;;;;;;;5056496;28;19999;-77
2021/11/19 02:23:35;;;;;;;;;;;;;;;;;;5055059;28;20256;-77
2021/11/19 02:26:03;;;;;;;;;;;;;;;;;;5046654;28;19927;-76
2021/11/19 02:28:31;;;;;;;;;;;;;;;;;;5038556;28;19919;-77
2021/11/19 02:31:01;;;;;;;;;;;;;;;;;;5055233;28;19913;-77
2021/11/19 02:33:28;;;;;;;;;;;;;;;;;;5038088;28;20337;-77
2021/11/19 02:35:53;;;;;;;;;;;;;;;;;;5054228;28;19913;-77
2021/11/19 02:38:29;;;;;;;;;;;;;;;;;;5054679;28;19920;-78
2021/11/19 02:40:55;;;;;;;;;;;;;;;;;;5056008;28;20287;-77
2021/11/19 02:43:42;;;;;;;;;;;;;;;;;;5054382;28;19936;-77
2021/11/19 02:46:08;;;;;;;;;;;;;;;;;;5054356;28;20286;-77
2021/11/19 02:48:34;;;;;;;;;;;;;;;;;;5054247;28;20003;-78
2021/11/19 02:51:04;;;;;;;;;;;;;;;;;;5054654;28;19917;-77
2021/11/19 02:53:29;;;;;;;;;;;;;;;;;;5053924;28;19912;-76
2021/11/19 02:55:58;;;;;;;;;;;;;;;;;;5054600;28;19916;-77
2021/11/19 02:58:27;;;;;;;;;;;;;;;;;;5054302;28;19967;-77
2021/11/19 03:00:59;;;;;;;;;;;;;;;;;;5054489;28;19913;-79
2021/11/19 03:03:25;;;;;;;;;;;;;;;;;;5054147;28;19942;-78
2021/11/19 03:05:51;;;;;;;;;;;;;;;;;;5054253;28;19916;-78
2021/11/19 03:08:16;;;;;;;;;;;;;;;;;;5053981;28;19912;-78
2021/11/19 03:10:48;;;;;;;;;;;;;;;;;;5054442;28;20282;-77
2021/11/19 03:13:15;;;;;;;;;;;;;;;;;;5054003;28;20006;-77
2021/11/19 03:15:44;;;;;;;;;;;;;;;;;;5037549;28;20400;-78
2021/11/19 03:18:11;;;;;;;;;;;;;;;;;;5053910;28;19970;-76
2021/11/19 03:20:39;;;;;;;;;;;;;;;;;;5053898;28;20277;-77
2021/11/19 03:23:04;;;;;;;;;;;;;;;;;;5054418;28;20278;-77
2021/11/19 03:25:32;;;;;;;;;;;;;;;;;;5054469;28;19913;-75
2021/11/19 03:28:01;;;;;;;;;;;;;;;;;;5053224;28;20301;-76
2021/11/19 03:30:32;;;;;;;;;;;;;;;;;;5037387;28;19913;-76
2021/11/19 03:32:57;;;;;;;;;;;;;;;;;;5054026;28;19938;-75
2021/11/19 03:35:25;;;;;;;;;;;;;;;;;;5053961;28;20362;-76
2021/11/19 03:37:52;;;;;;;;;;;;;;;;;;5052135;28;19920;-75
2021/11/19 03:40:20;;;;;;;;;;;;;;;;;;5053785;28;20290;-75
2021/11/19 03:42:47;;;;;;;;;;;;;;;;;;5053428;28;19920;-76
2021/11/19 03:45:15;;;;;;;;;;;;;;;;;;5053532;28;20003;-76
2021/11/19 03:47:43;;;;;;;;;;;;;;;;;;5054329;28;20003;-75
2021/11/19 03:50:21;;;;;;;;;;;;;;;;;;5053596;28;20370;-75
2021/11/19 03:52:47;;;;;;;;;;;;;;;;;;5037160;28;19912;-77
2021/11/19 03:55:15;;;;;;;;;;;;;;;;;;5047216;28;19920;-77
2021/11/19 03:57:42;;;;;;;;;;;;;;;;;;5034559;28;19913;-76
2021/11/19 04:00:16;;;;;;;;;;;;;;;;;;5033450;28;19913;-76
2021/11/19 04:02:46;;;;;;;;;;;;;;;;;;5033253;28;19913;-76
2021/11/19 04:05:13;;;;;;;;;;;;;;;;;;5033134;28;19913;-76
2021/11/19 04:07:38;;;;;;;;;;;;;;;;;;5033237;28;20007;-76
2021/11/19 04:10:06;;;;;;;;;;;;;;;;;;5032871;28;20391;-76
2021/11/19 04:12:31;;;;;;;;;;;;;;;;;;5033107;28;20366;-76
2021/11/19 04:14:57;;;;;;;;;;;;;;;;;;5033165;28;19939;-76
2021/11/19 04:17:22;;;;;;;;;;;;;;;;;;5050909;28;19912;-76
2021/11/19 04:19:47;;;;;;;;;;;;;;;;;;5052995;28;20018;-76
2021/11/19 04:22:14;;;;;;;;;;;;;;;;;;5054170;28;19940;-76
2021/11/19 04:24:43;;;;;;;;;;;;;;;;;;5051971;28;19912;-77
2021/11/19 04:27:09;;;;;;;;;;;;;;;;;;5052962;28;19966;-76
2021/11/19 04:29:53;;;;;;;;;;;;;;;;;;5052807;28;19917;-76
2021/11/19 04:32:24;;;;;;;;;;;;;;;;;;5052857;28;19927;-76
2021/11/19 04:34:53;;;;;;;;;;;;;;;;;;5051722;28;19917;-76
2021/11/19 04:37:19;;;;;;;;;;;;;;;;;;5052388;28;19912;-76
2021/11/19 04:39:45;;;;;;;;;;;;;;;;;;5053327;28;20317;-76
2021/11/19 04:42:11;;;;;;;;;;;;;;;;;;5052330;28;19924;-76
2021/11/19 04:44:37;;;;;;;;;;;;;;;;;;5052498;28;19917;-76
2021/11/19 04:47:03;;;;;;;;;;;;;;;;;;5053887;28;19913;-76
2021/11/19 04:49:29;;;;;;;;;;;;;;;;;;5053698;28;19919;-76
2021/11/19 04:51:55;;;;;;;;;;;;;;;;;;5053779;28;19913;-76
2021/11/19 04:54:22;;;;;;;;;;;;;;;;;;5052490;28;19962;-76
2021/11/19 04:56:48;;;;;;;;;;;;;;;;;;5053883;28;19935;-76
2021/11/19 04:59:14;;;;;;;;;;;;;;;;;;5052326;28;19917;-75
2021/11/19 05:01:42;;;;;;;;;;;;;;;;;;5053779;28;19936;-75
2021/11/19 05:04:35;;;;;;;;;;;;;;;;;;5051050;28;19920;-75
2021/11/19 05:07:00;;;;;;;;;;;;;;;;;;5052191;28;19958;-74
2021/11/19 05:09:29;;;;;;;;;;;;;;;;;;5053496;28;20330;-75
2021/11/19 05:12:09;;;;;;;;;;;;;;;;;;5052325;28;19912;-75
2021/11/19 05:14:37;;;;;;;;;;;;;;;;;;5052262;28;20273;-75
2021/11/19 05:17:03;;;;;;;;;;;;;;;;;;5052367;28;19913;-75
2021/11/19 05:19:29;;;;;;;;;;;;;;;;;;5051417;28;20270;-75
2021/11/19 05:21:55;;;;;;;;;;;;;;;;;;5052163;28;19912;-75
2021/11/19 05:24:21;;;;;;;;;;;;;;;;;;5051928;28;19956;-75
2021/11/19 05:26:47;;;;;;;;;;;;;;;;;;5052130;28;19920;-75
2021/11/19 05:29:15;;;;;;;;;;;;;;;;;;5052004;28;20397;-74
2021/11/19 05:31:41;;;;;;;;;;;;;;;;;;5052156;28;19952;-75
2021/11/19 05:34:07;;;;;;;;;;;;;;;;;;5052095;28;19919;-74
2021/11/19 05:36:33;;;;;;;;;;;;;;;;;;5051292;28;19912;-75
2021/11/19 05:38:59;;;;;;;;;;;;;;;;;;5035212;28;20377;-75
2021/11/19 05:41:25;;;;;;;;;;;;;;;;;;5051780;28;20282;-74
2021/11/19 05:43:52;;;;;;;;;;;;;;;;;;5051746;28;20021;-74
2021/11/19 05:46:40;;;;;;;;;;;;;;;;;;5052467;28;20341;-75
2021/11/19 05:49:10;;;;;;;;;;;;;;;;;;5050535;28;19912;-75
2021/11/19 05:51:36;;;;;;;;;;;;;;;;;;5053824;28;19913;-75
2021/11/19 05:54:02;;;;;;;;;;;;;;;;;;5055160;28;19916;-75
2021/11/19 05:56:28;;;;;;;;;;;;;;;;;;5056458;28;19920;-74
2021/11/19 05:58:53;;;;;;;;;;;;;;;;;;5055546;28;19920;-74
2021/11/19 06:01:37;;;;;;;;;;;;;;;;;;5055308;28;19938;-74
2021/11/19 06:04:08;;;;;;;;;;;;;;;;;;5039070;28;19963;-74
2021/11/19 06:06:40;;;;;;;;;;;;;;;;;;5055634;28;20358;-74
2021/11/19 06:09:14;;;;;;;;;;;;;;;;;;5055278;28;19999;-74
2021/11/19 06:11:41;;;;;;;;;;;;;;;;;;5055255;28;20375;-74
2021/11/19 06:14:20;;;;;;;;;;;;;;;;;;5038811;28;19919;-74
2021/11/19 06:16:49;;;;;;;;;;;;;;;;;;5056570;28;19913;-74
2021/11/19 06:19:18;;;;;;;;;;;;;;;;;;5055153;28;19916;-74
2021/11/19 06:21:47;;;;;;;;;;;;;;;;;;5056486;28;19912;-74
2021/11/19 06:24:15;;;;;;;;;;;;;;;;;;5056254;28;19962;-74
2021/11/19 06:26:41;;;;;;;;;;;;;;;;;;5055213;28;19999;-74
2021/11/19 06:29:07;;;;;;;;;;;;;;;;;;5056411;28;19912;-74
2021/11/19 06:31:36;;;;;;;;;;;;;;;;;;5054883;28;19917;-74
2021/11/19 06:34:01;;;;;;;;;;;;;;;;;;5056130;28;19916;-74
2021/11/19 06:36:26;;;;;;;;;;;;;;;;;;5054960;28;20063;-75
2021/11/19 06:38:52;;;;;;;;;;;;;;;;;;5054061;28;19923;-74
2021/11/19 06:41:19;;;;;;;;;;;;;;;;;;5054534;28;19912;-75
2021/11/19 06:44:03;;;;;;;;;;;;;;;;;;5055662;28;19923;-74
2021/11/19 06:46:48;;;;;;;;;;;;;;;;;;5055628;28;19917;-74
2021/11/19 06:49:16;;;;;;;;;;;;;;;;;;5056089;28;19913;-74
2021/11/19 06:51:42;;;;;;;;;;;;;;;;;;5056023;28;19919;-74
2021/11/19 06:54:35;;;;;;;;;;;;;;;;;;5054292;28;19923;-74
2021/11/19 06:57:36;;;;;;;;;;;;;;;;;;5055241;28;19948;-74
2021/11/19 07:00:04;;;;;;;;;;;;;;;;;;5054599;28;19948;-74
2021/11/19 07:02:30;;;;;;;;;;;;;;;;;;5053878;28;19913;-74
2021/11/19 07:04:55;;;;;;;;;;;;;;;;;;5053278;28;19917;-74
2021/11/19 07:07:20;;;;;;;;;;;;;;;;;;5054164;28;19923;-74
2021/11/19 07:09:47;;;;;;;;;;;;;;;;;;5054077;28;20266;-74
2021/11/19 07:12:15;;;;;;;;;;;;;;;;;;5018329;28;20275;-74
2021/11/19 07:14:48;;;;;;;;;;;;;;;;;;5034418;28;20268;-75
2021/11/19 07:17:15;;;;;;;;;;;;;;;;;;5033882;28;19959;-73
2021/11/19 07:19:42;;;;;;;;;;;;;;;;;;5041780;28;19920;-74
2021/11/19 07:22:07;;;;;;;;;;;;;;;;;;5054027;28;20315;-75
2021/11/19 07:24:36;;;;;;;;;;;;;;;;;;5053950;28;20378;-74
2021/11/19 07:27:08;;;;;;;;;;;;;;;;;;5050726;28;20375;-76
2021/11/19 07:29:34;;;;;;;;;;;;;;;;;;5033652;28;20007;-75
2021/11/19 07:32:01;;;;;;;;;;;;;;;;;;5033889;28;19915;-75
2021/11/19 07:34:44;;;;;;;;;;;;;;;;;;5034073;28;20282;-75
2021/11/19 07:37:32;;;;;;;;;;;;;;;;;;5033768;28;19967;-75
2021/11/19 07:40:17;;;;;;;;;;;;;;;;;;5033650;28;19919;-75
2021/11/19 07:42:54;;;;;;;;;;;;;;;;;;5033332;28;19967;-75
2021/11/19 07:45:37;;;;;;;;;;;;;;;;;;5033423;28;19917;-76
2021/11/19 07:48:18;;;;;;;;;;;;;;;;;;5037950;28;19919;-75
2021/11/19 07:50:46;;;;;;;;;;;;;;;;;;5052924;28;19912;-75
2021/11/19 07:53:11;;;;;;;;;;;;;;;;;;5053278;28;19995;-75
2021/11/19 07:55:37;;;;;;;;;;;;;;;;;;5054600;28;20371;-75
2021/11/19 07:58:03;;;;;;;;;;;;;;;;;;5053268;28;19961;-75
2021/11/19 08:00:32;;;;;;;;;;;;;;;;;;5052601;28;19913;-75
2021/11/19 08:03:08;;;;;;;;;;;;;;;;;;5053221;28;20414;-76
2021/11/19 08:05:35;;;;;;;;;;;;;;;;;;5053308;28;19959;-75
2021/11/19 08:08:12;;;;;;;;;;;;;;;;;;5051084;28;19917;-74
2021/11/19 08:10:51;;;;;;;;;;;;;;;;;;5053353;28;20278;-75
2021/11/19 08:13:17;;;;;;;;;;;;;;;;;;5052976;28;19919;-77
2021/11/19 08:15:43;;;;;;;;;;;;;;;;;;5051307;28;20410;-75
2021/11/19 08:18:17;;;;;;;;;;;;;;;;;;5052263;28;19924;-75
2021/11/19 08:20:44;;;;;;;;;;;;;;;;;;5052730;28;19939;-75
2021/11/19 08:23:17;;;;;;;;;;;;;;;;;;5054095;28;19911;-77
2021/11/19 08:25:43;;;;;;;;;;;;;;;;;;5054536;28;19920;-76
2021/11/19 08:28:08;;;;;;;;;;;;;;;;;;5074029;28;19919;-76
2021/11/19 08:30:39;;;;;;;;;;;;;;;;;;5074023;28;19913;-75
2021/11/19 08:33:05;;;;;;;;;;;;;;;;;;5074622;28;19912;-76
2021/11/19 08:35:33;;;;;;;;;;;;;;;;;;5075072;28;19912;-76
2021/11/19 08:37:59;;;;;;;;;;;;;;;;;;5074515;28;19924;-76
2021/11/19 08:40:25;;;;;;;;;;;;;;;;;;5063025;28;19913;-77
2021/11/19 08:42:51;;;;;;;;;;;;;;;;;;5054167;28;19968;-75
2021/11/19 08:45:18;;;;;;;;;;;;;;;;;;5053450;28;19998;-77
2021/11/19 08:47:44;;;;;;;;;;;;;;;;;;5053814;28;20264;-77
2021/11/19 08:50:10;;;;;;;;;;;;;;;;;;5037268;28;19912;-76
2021/11/19 08:52:36;;;;;;;;;;;;;;;;;;5035199;28;19913;-77
2021/11/19 08:55:03;;;;;;;;;;;;;;;;;;5034485;28;19919;-77
2021/11/19 08:57:28;;;;;;;;;;;;;;;;;;5034306;28;19913;-77
2021/11/19 08:59:54;;;;;;;;;;;;;;;;;;5034129;28;19924;-76
2021/11/19 09:02:21;;;;;;;;;;;;;;;;;;5044749;28;19912;-76
2021/11/19 09:04:47;;;;;;;;;;;;;;;;;;5053692;28;19912;-77
2021/11/19 09:07:14;;;;;;;;;;;;;;;;;;5053632;28;19978;-76
2021/11/19 09:09:41;;;;;;;;;;;;;;;;;;5054412;28;20328;-78
2021/11/19 09:12:07;;;;;;;;;;;;;;;;;;5054690;28;19928;-75
2021/11/19 09:14:32;;;;;;;;;;;;;;;;;;5053898;28;19928;-76
2021/11/19 09:17:17;;;;;;;;;;;;;;;;;;5053524;28;19912;-76
2021/11/19 09:19:50;;;;;;;;;;;;;;;;;;5053487;28;19927;-77
2021/11/19 09:22:15;;;;;;;;;;;;;;;;;;5053137;28;20541;-77
2021/11/19 09:24:41;;;;;;;;;;;;;;;;;;5052146;28;19912;-77
2021/11/19 09:27:10;;;;;;;;;;;;;;;;;;5057397;28;20267;-77
2021/11/19 09:29:58;;;;;;;;;;;;;;;;;;5057007;28;19966;-77
2021/11/19 09:32:25;;;;;;;;;;;;;;;;;;5057782;28;19961;-77
2021/11/19 09:34:51;;;;;;;;;;;;;;;;;;5043570;28;20374;-77
2021/11/19 09:37:17;;;;;;;;;;;;;;;;;;5052485;28;19966;-77
2021/11/19 09:39:44;;;;;;;;;;;;;;;;;;5057660;28;20358;-77
2021/11/19 09:42:27;;;;;;;;;;;;;;;;;;5057636;28;20337;-77
2021/11/19 09:45:01;;;;;;;;;;;;;;;;;;5057787;28;19917;-77
2021/11/19 09:47:37;;;;;;;;;;;;;;;;;;5056831;28;19913;-77
2021/11/19 09:50:05;;;;;;;;;;;;;;;;;;5056975;28;19930;-77
2021/11/19 09:52:49;;;;;;;;;;;;;;;;;;5056976;28;19912;-77
2021/11/19 09:55:14;;;;;;;;;;;;;;;;;;5057310;28;20359;-77
2021/11/19 09:57:45;;;;;;;;;;;;;;;;;;5056965;28;20004;-77
2021/11/19 10:00:20;;;;;;;;;;;;;;;;;;5055743;28;19912;-77
2021/11/19 10:03:08;;;;;;;;;;;;;;;;;;5056891;28;20319;-75
2021/11/19 10:05:40;;;;;;;;;;;;;;;;;;5056718;28;19912;-76
2021/11/19 10:08:24;;;;;;;;;;;;;;;;;;5056607;28;19913;-76
2021/11/19 10:10:58;;;;;;;;;;;;;;;;;;5038624;28;19999;-76
2021/11/19 10:13:30;;;;;;;;;;;;;;;;;;5056237;28;19920;-77
2021/11/19 10:16:13;;;;;;;;;;;;;;;;;;5056553;28;19919;-77
2021/11/19 10:18:54;;;;;;;;;;;;;;;;;;5056796;28;19916;-76
2021/11/19 10:21:34;;;;;;;;;;;;;;;;;;5056928;28;19955;-76
2021/11/19 10:24:05;;;;;;;;;;;;;;;;;;5055768;28;19913;-76
2021/11/19 10:26:34;;;;;;;;;;;;;;;;;;5056994;28;19951;-77
2021/11/19 10:29:05;;;;;;;;;;;;;;;;;;5055265;28;19909;-77
2021/11/19 10:31:30;;;;;;;;;;;;;;;;;;5043289;28;19913;-77
2021/11/19 10:34:16;;;;;;;;;;;;;;;;;;5036172;28;19920;-77
2021/11/19 10:36:57;;;;;;;;;;;;;;;;;;5035853;28;19916;-77
2021/11/19 10:39:33;;;;;;;;;;;;;;;;;;5046669;28;19923;-75
2021/11/19 10:41:58;;;;;;;;;;;;;;;;;;5056256;28;19913;-77
2021/11/19 10:44:31;;;;;;;;;;;;;;;;;;5056223;28;19923;-77
2021/11/19 10:46:57;;;;;;;;;;;;;;;;;;5038357;28;20331;-78
2021/11/19 10:49:32;;;;;;;;;;;;;;;;;;5056470;28;19920;-76
2021/11/19 10:52:16;;;;;;;;;;;;;;;;;;5055292;28;19912;-77
2021/11/19 10:54:57;;;;;;;;;;;;;;;;;;5054491;28;20255;-73
2021/11/19 10:57:22;;;;;;;;;;;;;;;;;;5055796;28;20022;-77
2021/11/19 11:00:06;;;;;;;;;;;;;;;;;;5056381;28;20374;-77
2021/11/19 11:02:40;;;;;;;;;;;;;;;;;;5057368;28;20290;-78
2021/11/19 11:05:16;;;;;;;;;;;;;;;;;;5056227;28;19912;-77
2021/11/19 11:07:59;;;;;;;;;;;;;;;;;;5036477;28;19917;-78
2021/11/19 11:10:29;;;;;;;;;;;;;;;;;;5038427;28;19962;-78
2021/11/19 11:12:55;;;;;;;;;;;;;;;;;;5045950;28;20003;-77
2021/11/19 11:15:29;;;;;;;;;;;;;;;;;;5059976;28;20382;-79
2021/11/19 11:17:54;;;;;;;;;;;;;;;;;;5062248;28;19912;-79
2021/11/19 11:20:22;;;;;;;;;;;;;;;;;;5059424;28;19912;-78
2021/11/19 11:22:56;;;;;;;;;;;;;;;;;;5065992;28;19917;-79
2021/11/19 11:25:27;;;;;;;;;;;;;;;;;;5072379;28;19920;-78
2021/11/19 11:27:55;;;;;;;;;;;;;;;;;;5077241;28;19920;-76
2021/11/19 11:30:24;;;;;;;;;;;;;;;;;;5079611;28;19916;-78
2021/11/19 11:32:49;;;;;;;;;;;;;;;;;;5081244;28;19919;-81
2021/11/19 11:35:33;;;;;;;;;;;;;;;;;;5080069;28;19913;-82
2021/11/19 11:38:04;;;;;;;;;;;;;;;;;;5041213;28;20360;-81
2021/11/19 11:40:38;;;;;;;;;;;;;;;;;;5039801;28;20354;-80
2021/11/19 11:43:22;;;;;;;;;;;;;;;;;;5058148;28;20362;-80
2021/11/19 11:45:52;;;;;;;;;;;;;;;;;;5057098;28;19920;-80
2021/11/19 11:48:26;;;;;;;;;;;;;;;;;;5056512;28;20489;-80
2021/11/19 11:50:58;;;;;;;;;;;;;;;;;;5055334;28;19967;-80
2021/11/19 11:53:40;;;;;;;;;;;;;;;;;;5055999;28;20003;-80
2021/11/19 11:56:19;;;;;;;;;;;;;;;;;;5055081;28;19963;-80
2021/11/19 11:59:16;;;;;;;;;;;;;;;;;;5056180;28;19920;-80
2021/11/19 12:01:42;;;;;;;;;;;;;;;;;;5033603;28;19917;-80
2021/11/19 12:04:26;;;;;;;;;;;;;;;;;;5056676;28;19913;-80
2021/11/19 12:07:00;;;;;;;;;;;;;;;;;;5054879;28;20286;-80
2021/11/19 12:09:32;;;;;;;;;;;;;;;;;;5055265;28;20387;-80
2021/11/19 12:12:15;;;;;;;;;;;;;;;;;;5055783;28;19912;-80
2021/11/19 12:14:49;;;;;;;;;;;;;;;;;;5056052;28;20282;-80
2021/11/19 12:17:14;;;;;;;;;;;;;;;;;;5055821;28;19982;-80
2021/11/19 12:19:46;;;;;;;;;;;;;;;;;;5056134;28;19956;-80
2021/11/19 12:22:26;;;;;;;;;;;;;;;;;;5056710;28;20347;-80
2021/11/19 12:25:01;;;;;;;;;;;;;;;;;;5056225;28;19931;-81
2021/11/19 12:27:33;;;;;;;;;;;;;;;;;;5056422;28;19943;-80
2021/11/19 12:30:17;;;;;;;;;;;;;;;;;;5054948;28;20290;-80
2021/11/19 12:32:45;;;;;;;;;;;;;;;;;;5057208;28;19920;-80
2021/11/19 12:35:25;;;;;;;;;;;;;;;;;;5058903;28;19923;-80
2021/11/19 12:38:10;;;;;;;;;;;;;;;;;;5057884;28;20330;-81
2021/11/19 12:40:47;;;;;;;;;;;;;;;;;;5061293;28;19984;-80
2021/11/19 12:43:12;;;;;;;;;;;;;;;;;;5062314;28;19931;-80
2021/11/19 12:45:39;;;;;;;;;;;;;;;;;;5059027;28;19946;-81
2021/11/19 12:48:28;;;;;;;;;;;;;;;;;;5042654;28;19919;-80
2021/11/19 12:50:56;;;;;;;;;;;;;;;;;;5055629;28;19916;-80
2021/11/19 12:53:38;;;;;;;;;;;;;;;;;;5059875;28;19913;-80
2021/11/19 12:56:39;;;;;;;;;;;;;;;;;;5059240;28;19913;-80
2021/11/19 12:59:04;;;;;;;;;;;;;;;;;;5017384;28;20414;-80
2021/11/19 13:01:31;;;;;;;;;;;;;;;;;;5049167;28;19913;-81
2021/11/19 13:03:58;;;;;;;;;;;;;;;;;;5059480;28;19913;-80
2021/11/19 13:06:41;;;;;;;;;;;;;;;;;;5058761;28;19955;-80
2021/11/19 13:09:12;;;;;;;;;;;;;;;;;;5058621;28;19912;-81
2021/11/19 13:11:55;;;;;;;;;;;;;;;;;;5057789;28;19962;-81
2021/11/19 13:14:24;;;;;;;;;;;;;;;;;;5058767;28;19935;-80
2021/11/19 13:16:57;;;;;;;;;;;;;;;;;;5050919;28;19920;-82
2021/11/19 13:19:45;;;;;;;;;;;;;;;;;;5037718;28;19925;-80
2021/11/19 13:22:11;;;;;;;;;;;;;;;;;;5037660;28;19913;-81
2021/11/19 13:24:39;;;;;;;;;;;;;;;;;;5041254;28;20373;-82
2021/11/19 13:27:07;;;;;;;;;;;;;;;;;;5037569;28;20309;-82
2021/11/19 13:29:36;;;;;;;;;;;;;;;;;;5035677;28;20417;-82
2021/11/19 13:32:29;;;;;;;;;;;;;;;;;;5037835;28;19913;-81
2021/11/19 13:34:56;;;;;;;;;;;;;;;;;;5037775;28;20298;-81
2021/11/19 13:37:23;;;;;;;;;;;;;;;;;;5037449;28;20006;-80
2021/11/19 13:39:51;;;;;;;;;;;;;;;;;;5037078;28;20302;-80
2021/11/19 13:42:21;;;;;;;;;;;;;;;;;;5055274;28;19909;-78
2021/11/19 13:44:48;;;;;;;;;;;;;;;;;;5052986;28;19916;-77
2021/11/19 13:47:20;;;;;;;;;;;;;;;;;;5059879;28;19920;-77
2021/11/19 13:49:48;;;;;;;;;;;;;;;;;;5073151;28;20017;-77
2021/11/19 13:52:18;;;;;;;;;;;;;;;;;;5071985;28;19912;-78
2021/11/19 13:54:45;;;;;;;;;;;;;;;;;;5053150;28;19913;-77
2021/11/19 13:57:18;;;;;;;;;;;;;;;;;;5052562;28;19920;-76
2021/11/19 13:59:49;;;;;;;;;;;;;;;;;;5052776;28;20264;-77
2021/11/19 14:02:40;;;;;;;;;;;;;;;;;;5054964;28;20305;-81
2021/11/19 14:05:15;;;;;;;;;;;;;;;;;;5041080;28;20412;-79
2021/11/19 14:07:48;;;;;;;;;;;;;;;;;;5058776;28;19913;-81
2021/11/19 14:10:13;;;;;;;;;;;;;;;;;;5055062;28;19916;-76
2021/11/19 14:12:45;;;;;;;;;;;;;;;;;;5056324;28;19913;-80
2021/11/19 14:15:24;;;;;;;;;;;;;;;;;;5056875;28;20338;-77
2021/11/19 14:17:52;;;;;;;;;;;;;;;;;;5056178;28;19958;-77
2021/11/19 14:23:13;;;;;;;;;;;;;;;;;;5055698;28;20104;-76
2021/11/19 14:25:40;;;;;;;;;;;;;;;;;;5057442;28;20377;-76
2021/11/19 14:28:11;;;;;;;;;;;;;;;;;;5056486;28;20301;-76
2021/11/19 14:30:39;;;;;;;;;;;;;;;;;;5056619;28;19912;-77
2021/11/19 14:33:10;;;;;;;;;;;;;;;;;;5056604;28;20026;-77
2021/11/19 14:35:38;;;;;;;;;;;;;;;;;;5056579;28;19970;-78
2021/11/19 14:38:06;;;;;;;;;;;;;;;;;;5056604;28;20297;-77
2021/11/19 14:40:41;;;;;;;;;;;;;;;;;;5057060;28;19942;-78
2021/11/19 14:43:11;;;;;;;;;;;;;;;;;;5047264;28;19913;-78
2021/11/19 14:45:38;;;;;;;;;;;;;;;;;;5038847;28;20248;-76
2021/11/19 14:48:06;;;;;;;;;;;;;;;;;;5040570;28;20282;-78
2021/11/19 14:53:35;;;;;;;;;;;;;;;;;;5045789;28;19919;-78
2021/11/19 14:56:09;;;;;;;;;;;;;;;;;;5040352;28;19913;-78
2021/11/19 14:58:35;;;;;;;;;;;;;;;;;;5037930;28;19924;-78
2021/11/19 15:01:03;;;;;;;;;;;;;;;;;;5041019;28;19913;-78
2021/11/19 15:03:38;;;;;;;;;;;;;;;;;;5043939;28;19917;-77
2021/11/19 15:06:35;;;;;;;;;;;;;;;;;;5054883;28;19956;-78
2021/11/19 15:09:23;;;;;;;;;;;;;;;;;;5048015;28;19955;-78
2021/11/19 15:11:52;;;;;;;;;;;;;;;;;;5034484;28;20283;-78
2021/11/19 15:14:17;;;;;;;;;;;;;;;;;;5035434;28;19964;-77
2021/11/19 15:16:45;;;;;;;;;;;;;;;;;;5034358;28;19949;-77
2021/11/19 15:19:32;;;;;;;;;;;;;;;;;;5051395;28;19923;-78
2021/11/19 15:22:07;;;;;;;;;;;;;;;;;;5055651;28;19912;-78
2021/11/19 15:24:34;;;;;;;;;;;;;;;;;;5054119;28;19962;-78
2021/11/19 15:27:03;;;;;;;;;;;;;;;;;;5055627;28;19908;-77
2021/11/19 15:29:29;;;;;;;;;;;;;;;;;;5053562;28;19919;-77
2021/11/19 15:32:00;;;;;;;;;;;;;;;;;;5053442;28;19913;-76
2021/11/19 15:34:28;;;;;;;;;;;;;;;;;;5053964;28;19920;-76
2021/11/19 15:37:14;;;;;;;;;;;;;;;;;;5055006;28;19966;-76
2021/11/19 15:39:39;;;;;;;;;;;;;;;;;;5053828;28;19917;-76
2021/11/19 15:42:05;;;;;;;;;;;;;;;;;;5055018;28;19920;-77
2021/11/19 15:44:32;;;;;;;;;;;;;;;;;;5054540;28;19921;-76
2021/11/19 15:46:58;;;;;;;;;;;;;;;;;;5054801;28;19913;-76
2021/11/19 15:49:25;;;;;;;;;;;;;;;;;;5054877;28;19912;-76
2021/11/19 15:52:08;;;;;;;;;;;;;;;;;;5054681;28;19982;-76
2021/11/19 15:54:39;;;;;;;;;;;;;;;;;;5054482;28;19912;-76
2021/11/19 15:57:19;;;;;;;;;;;;;;;;;;5054348;28;20371;-76
2021/11/19 15:59:57;;;;;;;;;;;;;;;;;;5054600;28;19959;-76
2021/11/19 16:02:31;;;;;;;;;;;;;;;;;;5054571;28;20428;-76
2021/11/19 16:05:15;;;;;;;;;;;;;;;;;;5053376;28;19932;-76
2021/11/19 16:07:50;;;;;;;;;;;;;;;;;;5053201;28;19920;-76
2021/11/19 16:10:33;;;;;;;;;;;;;;;;;;5054311;28;19920;-76
2021/11/19 16:13:02;;;;;;;;;;;;;;;;;;5054451;28;20003;-76
2021/11/19 16:15:28;;;;;;;;;;;;;;;;;;5054147;28;19982;-77
2021/11/19 16:17:53;;;;;;;;;;;;;;;;;;5054055;28;19955;-78
2021/11/19 16:20:18;;;;;;;;;;;;;;;;;;5052069;28;19960;-77
2021/11/19 16:22:44;;;;;;;;;;;;;;;;;;5053640;28;19913;-77
2021/11/19 16:25:12;;;;;;;;;;;;;;;;;;5054109;28;19920;-77
2021/11/19 16:27:38;;;;;;;;;;;;;;;;;;5055409;28;19916;-77
2021/11/19 16:30:06;;;;;;;;;;;;;;;;;;5055920;28;19962;-77
2021/11/19 16:32:32;;;;;;;;;;;;;;;;;;5074202;28;19955;-77
2021/11/19 16:34:57;;;;;;;;;;;;;;;;;;5072207;28;20377;-77
2021/11/19 16:37:23;;;;;;;;;;;;;;;;;;5064820;28;19959;-77
2021/11/19 16:39:48;;;;;;;;;;;;;;;;;;5038602;28;20325;-77
2021/11/19 16:42:14;;;;;;;;;;;;;;;;;;5043562;28;19913;-77
2021/11/19 16:44:41;;;;;;;;;;;;;;;;;;5048280;28;19917;-78
2021/11/19 16:47:07;;;;;;;;;;;;;;;;;;5044732;28;19912;-77
2021/11/19 16:49:34;;;;;;;;;;;;;;;;;;5045127;28;20440;-77
2021/11/19 16:52:02;;;;;;;;;;;;;;;;;;5042103;28;19913;-76
2021/11/19 16:54:27;;;;;;;;;;;;;;;;;;5039175;28;19913;-77
2021/11/19 16:56:58;;;;;;;;;;;;;;;;;;5033932;28;19920;-77
2021/11/19 16:59:23;;;;;;;;;;;;;;;;;;5033764;28;19917;-79
2021/11/19 17:01:50;;;;;;;;;;;;;;;;;;5046551;28;19920;-77
2021/11/19 17:04:16;;;;;;;;;;;;;;;;;;5044177;28;19919;-77
2021/11/19 17:06:42;;;;;;;;;;;;;;;;;;5049374;28;19912;-78
2021/11/19 17:09:08;;;;;;;;;;;;;;;;;;5053703;28;19962;-77
2021/11/19 17:11:35;;;;;;;;;;;;;;;;;;5053516;28;19917;-77
2021/11/19 17:14:04;;;;;;;;;;;;;;;;;;5035434;28;20358;-77
2021/11/19 17:16:29;;;;;;;;;;;;;;;;;;5050658;28;20490;-77